Portada
METAR-TAF:

METAR-TAF

Aeroports :

Balkhash, Kazakhstan

latitud: 46-53-38N, longitud: 075-00-19E, altitud: 440 m

Observació

L'informe es va fer fa 8 hores i 59 minuts, a les 11:00 UTC
Vent 23 kt del Est
Temperatura 36°C
Humitat 13%
Pressió 1021 hPa
Visibilitat 10 km o més
sense núvols per sota de 1500 mi sense presència de cumulonimbus.

METAR: UAAH 251100Z 08012MPS CAVOK 36/03 Q1021 R05/0///60 NOSIG RMK QFE728/0971

Hora: 01:59 (19:59 UTC)

Pronòstic

L'informe es va fer fa 11 hores i 57 minuts, a les 08:02 UTC
Pronòstic vàlid del 25 a les 09 UTC al 25 a les 18 UTC
Vent 19 kt del Est amb ràfegues de 29 kt
Visibilitat 10 km o més
sense núvols per sota de 1500 mi sense presència de cumulonimbus.

TAF: UAAH 250802Z 2509/2518 08010G15MPS CAVOK

Observacions i pronòstics meteorològics de més de 4000 aeroports (METAR i TAF).

Les estacions disponibles són els punts grocs i vermells al mapa.

Posi el ratolí al punt desitjat per veure el nom de l'estació.

Feu clic per veure les observacions i els pronòstics meteorològics.

Per canviar el mapa: feu clic els botons verds amb una creu de color negre per apropar; al botó verd amb un guió per allunyar la imatge; o en les fletxes verdes per a mapes adjacents.


METAR-TAF: